createdAt,value
2023-02-22T00:00:03.232Z,8.82
2023-02-22T00:02:37.705Z,6.68
2023-02-22T00:05:08.184Z,9.73
2023-02-22T00:07:38.571Z,9.43
2023-02-22T00:10:13.441Z,10.80
2023-02-22T00:12:46.837Z,12.20
2023-02-22T00:15:18.196Z,11.05
2023-02-22T00:17:48.199Z,11.82
2023-02-22T00:20:20.219Z,11.65
2023-02-22T00:22:51.764Z,8.57
2023-02-22T00:25:23.242Z,9.52
2023-02-22T00:27:56.332Z,8.65
2023-02-22T00:30:29.083Z,14.88
2023-02-22T00:33:00.549Z,10.88
2023-02-22T00:35:32.784Z,17.55
2023-02-22T00:38:04.172Z,14.32
2023-02-22T00:40:35.661Z,13.82
2023-02-22T00:43:08.904Z,10.95
2023-02-22T00:45:39.970Z,11.10
2023-02-22T00:48:10.824Z,12.35
2023-02-22T00:50:40.846Z,9.43
2023-02-22T00:53:11.980Z,9.15
2023-02-22T00:55:42.389Z,12.82
2023-02-22T00:58:14.916Z,11.52
2023-02-22T01:00:45.844Z,12.55
2023-02-22T01:03:19.549Z,10.77
2023-02-22T01:05:50.325Z,10.50
2023-02-22T01:08:20.750Z,11.93
2023-02-22T01:10:52.655Z,12.43
2023-02-22T01:13:25.268Z,9.45
2023-02-22T01:15:56.763Z,12.40
2023-02-22T01:18:26.768Z,9.10
2023-02-22T01:20:56.959Z,8.88
2023-02-22T01:23:27.204Z,8.57
2023-02-22T01:25:57.402Z,9.52
2023-02-22T01:28:30.132Z,9.93
2023-02-22T01:31:01.753Z,9.55
2023-02-22T01:33:32.085Z,10.35
2023-02-22T01:36:03.837Z,8.77
2023-02-22T01:38:34.309Z,11.65
2023-02-22T01:41:04.556Z,8.02
2023-02-22T01:43:37.473Z,9.90
2023-02-22T01:46:08.989Z,8.82
2023-02-22T01:48:44.583Z,11.15
2023-02-22T01:51:18.149Z,8.63
2023-02-22T01:53:53.258Z,12.52
2023-02-22T01:56:26.029Z,10.23
2023-02-22T01:59:02.150Z,7.95
2023-02-22T02:01:32.864Z,10.07
2023-02-22T02:04:06.707Z,11.27
2023-02-22T02:06:38.755Z,8.48
2023-02-22T02:09:13.580Z,6.15
2023-02-22T02:11:44.700Z,7.85
2023-02-22T02:14:18.079Z,6.72
2023-02-22T02:16:53.357Z,6.82
2023-02-22T02:19:31.154Z,6.38
2023-02-22T02:22:33.040Z,9.02
2023-02-22T02:25:33.148Z,5.05
2023-02-22T02:28:35.262Z,6.90
2023-02-22T02:31:43.398Z,8.20
2023-02-22T02:34:24.269Z,8.82
2023-02-22T02:37:03.638Z,9.57
2023-02-22T02:39:49.983Z,5.82
2023-02-22T02:42:25.873Z,6.65
2023-02-22T02:45:02.698Z,5.80
2023-02-22T02:47:37.167Z,5.13
2023-02-22T02:50:13.508Z,6.38
2023-02-22T02:52:44.923Z,8.20
2023-02-22T02:55:16.173Z,9.02
2023-02-22T02:57:46.408Z,5.32
2023-02-22T03:00:26.121Z,6.53
2023-02-22T03:03:08.332Z,3.88
2023-02-22T03:06:01.935Z,3.92
2023-02-22T03:08:37.411Z,6.05
2023-02-22T03:11:15.553Z,4.68
2023-02-22T03:13:55.950Z,7.40
2023-02-22T03:16:36.743Z,4.40
2023-02-22T03:19:13.794Z,4.05
2023-02-22T03:21:53.127Z,6.70
2023-02-22T03:24:28.415Z,6.78
2023-02-22T03:27:05.018Z,5.57
2023-02-22T03:29:40.438Z,3.55
2023-02-22T03:32:15.034Z,3.45
2023-02-22T03:34:52.767Z,4.80
2023-02-22T03:37:31.704Z,4.55
2023-02-22T03:40:07.241Z,5.50
2023-02-22T03:42:40.896Z,7.30
2023-02-22T03:45:13.543Z,3.50
2023-02-22T03:47:50.378Z,4.38
2023-02-22T03:50:25.437Z,5.20
2023-02-22T03:52:59.582Z,4.63
2023-02-22T03:55:32.344Z,5.18
2023-02-22T03:58:04.948Z,6.68
2023-02-22T04:00:37.354Z,3.90
2023-02-22T04:03:08.213Z,4.43
2023-02-22T04:05:38.599Z,5.70
2023-02-22T04:08:11.168Z,3.63
2023-02-22T04:10:41.150Z,4.00
2023-02-22T04:13:14.707Z,5.95
2023-02-22T04:15:48.498Z,5.85
2023-02-22T04:18:18.894Z,6.25
2023-02-22T04:20:50.844Z,5.60
2023-02-22T04:23:41.863Z,5.18
2023-02-22T04:26:12.288Z,4.30
2023-02-22T04:28:42.784Z,6.45
2023-02-22T04:31:16.987Z,4.35
2023-02-22T04:33:47.307Z,6.60
2023-02-22T04:36:21.780Z,5.23
2023-02-22T04:38:55.197Z,4.88
2023-02-22T04:41:25.694Z,6.15
2023-02-22T04:43:55.949Z,4.57
2023-02-22T04:46:27.938Z,5.73
2023-02-22T04:48:58.701Z,6.45
2023-02-22T04:51:31.879Z,6.70
2023-02-22T04:54:11.086Z,5.05
2023-02-22T04:56:45.839Z,9.30
2023-02-22T04:59:16.117Z,6.17
2023-02-22T05:01:49.025Z,8.32
2023-02-22T05:04:19.336Z,6.57
2023-02-22T05:06:49.648Z,5.40
2023-02-22T05:09:22.759Z,6.18
2023-02-22T05:11:53.086Z,5.97
2023-02-22T05:14:26.757Z,5.80
2023-02-22T05:16:57.925Z,5.72
2023-02-22T05:19:28.180Z,8.07
2023-02-22T05:21:59.177Z,7.23
2023-02-22T05:24:32.322Z,5.75
2023-02-22T05:27:02.583Z,6.97
2023-02-22T05:29:32.845Z,7.83
2023-02-22T05:32:03.290Z,5.97
2023-02-22T05:34:33.679Z,7.50
2023-02-22T05:37:04.002Z,6.30
2023-02-22T05:39:36.867Z,10.13
2023-02-22T05:42:07.280Z,10.40
2023-02-22T05:44:37.782Z,10.03
2023-02-22T05:47:08.036Z,10.93
2023-02-22T05:49:38.277Z,9.37
2023-02-22T05:52:08.812Z,7.50
2023-02-22T05:54:41.757Z,9.10
2023-02-22T05:57:12.041Z,8.07
2023-02-22T05:59:43.329Z,10.07
2023-02-22T06:02:13.659Z,14.07
2023-02-22T06:04:44.019Z,11.23
2023-02-22T06:07:14.400Z,11.10
2023-02-22T06:09:47.364Z,11.38
2023-02-22T06:12:17.708Z,12.68
2023-02-22T06:14:48.303Z,13.63
2023-02-22T06:17:20.597Z,14.70
2023-02-22T06:19:51.031Z,12.10
2023-02-22T06:22:21.962Z,11.18
2023-02-22T06:24:55.209Z,11.83
2023-02-22T06:27:25.661Z,12.10
2023-02-22T06:29:55.944Z,12.20
2023-02-22T06:32:26.387Z,14.73
2023-02-22T06:34:56.922Z,17.17
2023-02-22T06:37:27.217Z,16.92
2023-02-22T06:40:04.811Z,20.38
2023-02-22T06:42:35.641Z,16.75
2023-02-22T06:45:05.946Z,21.10
2023-02-22T06:47:36.283Z,18.67
2023-02-22T06:50:06.841Z,17.63
2023-02-22T06:52:37.130Z,18.40
2023-02-22T06:55:10.177Z,19.58
2023-02-22T06:57:40.405Z,16.98
2023-02-22T07:00:11.498Z,20.13
2023-02-22T07:02:41.773Z,24.58
2023-02-22T07:05:13.334Z,23.50
2023-02-22T07:07:43.629Z,24.20
2023-02-22T07:10:23.192Z,21.33
2023-02-22T07:12:53.836Z,23.92
2023-02-22T07:15:25.205Z,21.63
2023-02-22T07:17:55.831Z,29.90
2023-02-22T07:20:27.209Z,23.83
2023-02-22T07:22:57.543Z,29.13
2023-02-22T07:25:30.519Z,29.48
2023-02-22T07:28:00.931Z,33.92
2023-02-22T07:30:32.521Z,35.78
2023-02-22T07:33:04.832Z,25.58
2023-02-22T07:35:36.843Z,29.70
2023-02-22T07:38:08.270Z,34.88
2023-02-22T07:40:41.763Z,29.63
2023-02-22T07:43:17.444Z,36.58
2023-02-22T07:45:48.576Z,33.33
2023-02-22T07:48:20.168Z,36.35
2023-02-22T07:50:50.790Z,35.63
2023-02-22T07:53:22.224Z,26.95
2023-02-22T07:55:55.403Z,31.23
2023-02-22T07:58:42.147Z,32.10
2023-02-22T08:01:12.173Z,32.30
2023-02-22T08:03:42.678Z,27.33
2023-02-22T08:06:12.677Z,33.90
2023-02-22T08:08:42.948Z,25.67
2023-02-22T08:11:16.228Z,29.00
2023-02-22T08:13:46.749Z,27.03
2023-02-22T08:16:17.000Z,26.73
2023-02-22T08:18:47.017Z,24.20
2023-02-22T08:21:17.336Z,32.55
2023-02-22T08:23:47.559Z,25.70
2023-02-22T08:26:20.904Z,28.88
2023-02-22T08:28:51.894Z,28.08
2023-02-22T08:31:22.142Z,27.40
2023-02-22T08:33:52.619Z,24.80
2023-02-22T08:36:22.894Z,31.42
2023-02-22T08:38:53.438Z,25.67
2023-02-22T08:41:26.018Z,21.98
2023-02-22T08:43:55.986Z,23.27
2023-02-22T08:46:25.980Z,22.38
2023-02-22T08:48:56.750Z,25.52
2023-02-22T08:51:27.996Z,22.55
2023-02-22T08:53:58.002Z,17.60
2023-02-22T08:56:30.556Z,20.85
2023-02-22T08:59:00.483Z,17.23
2023-02-22T09:01:33.492Z,19.75
2023-02-22T09:04:03.779Z,19.25
2023-02-22T09:06:34.071Z,18.05
2023-02-22T09:09:04.186Z,19.40
2023-02-22T09:11:36.756Z,17.17
2023-02-22T09:14:06.713Z,13.82
2023-02-22T09:16:38.401Z,12.60
2023-02-22T09:19:08.480Z,11.98
2023-02-22T09:21:40.274Z,14.57
2023-02-22T09:24:11.070Z,12.20
2023-02-22T09:26:54.224Z,14.13
2023-02-22T09:29:25.456Z,12.32
2023-02-22T09:31:57.322Z,10.80
2023-02-22T09:34:29.791Z,13.50
2023-02-22T09:37:00.351Z,11.38
2023-02-22T09:39:30.413Z,14.98
2023-02-22T09:42:10.441Z,11.00
2023-02-22T09:44:49.035Z,9.40
2023-02-22T09:47:21.933Z,9.20
2023-02-22T09:50:02.458Z,10.32
2023-02-22T09:52:36.483Z,9.88
2023-02-22T09:55:11.940Z,9.10
2023-02-22T09:57:46.818Z,8.27
2023-02-22T10:00:21.613Z,9.63
2023-02-22T10:03:02.500Z,8.82
2023-02-22T10:05:37.730Z,7.38
2023-02-22T10:08:12.816Z,8.68
2023-02-22T10:10:46.079Z,8.38
2023-02-22T10:13:32.936Z,6.23
2023-02-22T10:16:05.851Z,10.07
2023-02-22T10:19:00.207Z,7.75
2023-02-22T10:21:45.334Z,9.27
2023-02-22T10:24:26.349Z,7.45
2023-02-22T10:26:57.490Z,9.40
2023-02-22T10:29:35.406Z,7.70
2023-02-22T10:32:07.685Z,6.70
2023-02-22T10:34:43.930Z,5.60
2023-02-22T10:37:22.561Z,5.15
2023-02-22T10:39:54.983Z,6.85
2023-02-22T10:42:26.243Z,7.22
2023-02-22T10:44:58.880Z,5.32
2023-02-22T10:47:28.887Z,5.88
2023-02-22T10:50:00.568Z,4.80
2023-02-22T10:52:33.961Z,7.43
2023-02-22T10:55:15.612Z,4.60
2023-02-22T10:57:48.154Z,5.75
2023-02-22T11:00:26.445Z,4.50
2023-02-22T11:02:59.726Z,5.65
2023-02-22T11:05:36.938Z,4.68
2023-02-22T11:08:30.797Z,6.18
2023-02-22T11:11:04.862Z,7.03
2023-02-22T11:13:36.637Z,4.18
2023-02-22T11:16:22.235Z,4.50
2023-02-22T11:18:52.359Z,4.55
2023-02-22T11:21:25.621Z,4.40
2023-02-22T11:24:04.982Z,4.20
2023-02-22T11:26:43.804Z,4.25
2023-02-22T11:29:16.717Z,5.88
2023-02-22T11:31:51.946Z,4.28
2023-02-22T11:34:34.414Z,3.40
2023-02-22T11:37:32.875Z,3.35
2023-02-22T11:40:22.288Z,4.10
2023-02-22T11:43:09.852Z,3.13
2023-02-22T11:45:44.227Z,5.18
2023-02-22T11:48:23.802Z,2.65
2023-02-22T11:51:06.516Z,3.08
2023-02-22T11:53:50.425Z,3.95
2023-02-22T11:56:36.971Z,4.18
2023-02-22T11:59:18.203Z,6.75
2023-02-22T12:01:55.088Z,3.33
2023-02-22T12:04:52.541Z,3.00
2023-02-22T12:07:48.657Z,3.40
2023-02-22T12:10:26.251Z,3.40
2023-02-22T12:13:13.200Z,3.85
2023-02-22T12:15:50.610Z,3.28
2023-02-22T12:18:29.397Z,3.35
2023-02-22T12:21:05.699Z,2.20
2023-02-22T12:23:50.768Z,4.28
2023-02-22T12:26:27.826Z,3.08
2023-02-22T12:29:01.571Z,5.43
2023-02-22T12:31:35.155Z,2.55
2023-02-22T12:34:11.967Z,3.30
2023-02-22T12:36:49.415Z,2.08
2023-02-22T12:39:40.937Z,4.85
2023-02-22T12:42:20.830Z,2.88
2023-02-22T12:44:57.856Z,3.33
2023-02-22T12:47:37.133Z,1.58
2023-02-22T12:50:16.015Z,1.77
2023-02-22T12:52:53.151Z,1.60
2023-02-22T12:55:26.478Z,3.35
2023-02-22T12:58:03.808Z,2.47
2023-02-22T13:00:42.018Z,2.28
2023-02-22T13:03:30.538Z,1.88
2023-02-22T13:06:14.142Z,1.50
2023-02-22T13:08:57.032Z,2.20
2023-02-22T13:11:34.678Z,4.18
2023-02-22T13:14:17.066Z,2.45
2023-02-22T13:16:54.419Z,3.25
2023-02-22T13:19:35.967Z,2.63
2023-02-22T13:22:11.036Z,2.70
2023-02-22T13:24:51.499Z,2.15
2023-02-22T13:27:26.315Z,2.65
2023-02-22T13:30:01.512Z,2.38
2023-02-22T13:32:45.318Z,1.45
2023-02-22T13:35:30.144Z,1.95
2023-02-22T13:38:21.632Z,2.70
2023-02-22T13:41:12.940Z,2.80
2023-02-22T13:44:04.228Z,4.65
2023-02-22T13:47:04.602Z,2.80
2023-02-22T13:49:50.192Z,1.67
2023-02-22T13:52:23.910Z,1.15
2023-02-22T13:54:56.092Z,1.58
2023-02-22T13:57:31.616Z,2.95
2023-02-22T14:00:26.727Z,1.67
2023-02-22T14:03:03.838Z,3.13
2023-02-22T14:05:53.836Z,1.77
2023-02-22T14:08:50.908Z,1.50
2023-02-22T14:11:45.797Z,2.88
2023-02-22T14:14:22.413Z,1.55
2023-02-22T14:17:27.152Z,2.55
2023-02-22T14:20:14.825Z,2.75
2023-02-22T14:22:47.929Z,1.50
2023-02-22T14:25:40.437Z,2.92
2023-02-22T14:28:12.776Z,3.95
2023-02-22T14:30:45.378Z,3.00
2023-02-22T14:33:54.094Z,2.58
2023-02-22T14:36:25.962Z,2.65
2023-02-22T14:39:00.897Z,2.88
2023-02-22T14:41:34.318Z,2.05
2023-02-22T14:44:07.356Z,2.42
2023-02-22T14:46:42.677Z,2.90
2023-02-22T14:49:19.026Z,6.78
2023-02-22T14:51:57.370Z,2.33
2023-02-22T14:54:33.242Z,1.58
2023-02-22T14:57:15.281Z,1.83
2023-02-22T15:00:10.664Z,1.70
2023-02-22T15:02:44.229Z,3.15
2023-02-22T15:05:16.693Z,2.22
2023-02-22T15:07:54.831Z,1.42
2023-02-22T15:10:33.245Z,1.73
2023-02-22T15:13:12.720Z,3.92
2023-02-22T15:15:49.194Z,1.08
2023-02-22T15:18:30.204Z,2.15
2023-02-22T15:21:07.082Z,1.92
2023-02-22T15:23:44.686Z,1.42
2023-02-22T15:26:23.201Z,1.23
2023-02-22T15:28:57.334Z,1.90
2023-02-22T15:31:32.071Z,1.58
2023-02-22T15:34:13.605Z,2.70
2023-02-22T15:36:44.824Z,1.38
2023-02-22T15:39:25.597Z,1.60
2023-02-22T15:42:07.977Z,0.68
2023-02-22T15:44:40.354Z,2.45
2023-02-22T15:47:14.353Z,1.92
2023-02-22T15:49:47.135Z,2.22
2023-02-22T15:52:23.754Z,1.48
2023-02-22T15:54:54.867Z,1.42
2023-02-22T15:57:29.800Z,1.38
2023-02-22T16:00:00.815Z,1.02
2023-02-22T16:02:37.076Z,1.17
2023-02-22T16:05:13.048Z,1.33
2023-02-22T16:07:47.361Z,2.55
2023-02-22T16:10:29.918Z,2.50
2023-02-22T16:13:19.055Z,1.95
2023-02-22T16:16:01.958Z,1.65
2023-02-22T16:18:35.412Z,1.58
2023-02-22T16:21:13.197Z,5.20
2023-02-22T16:23:48.424Z,1.50
2023-02-22T16:26:24.330Z,2.22
2023-02-22T16:28:56.857Z,2.22
2023-02-22T16:31:28.993Z,1.42
2023-02-22T16:33:59.004Z,3.78
2023-02-22T16:36:43.827Z,3.30
2023-02-22T16:39:19.093Z,1.83
2023-02-22T16:41:49.182Z,2.17
2023-02-22T16:44:19.469Z,3.50
2023-02-22T16:46:49.546Z,1.60
2023-02-22T16:49:20.520Z,4.03
2023-02-22T16:51:56.239Z,2.92
2023-02-22T16:54:30.845Z,2.08
2023-02-22T16:57:03.964Z,2.58
2023-02-22T16:59:35.679Z,2.05
2023-02-22T17:02:07.673Z,1.65
2023-02-22T17:04:37.824Z,2.85
2023-02-22T17:07:10.426Z,2.85
2023-02-22T17:09:40.431Z,2.78
2023-02-22T17:12:10.930Z,7.18
2023-02-22T17:14:41.487Z,3.88
2023-02-22T17:17:13.817Z,4.25
2023-02-22T17:19:43.877Z,4.60
2023-02-22T17:22:23.319Z,5.22
2023-02-22T17:24:53.703Z,5.00
2023-02-22T17:27:24.056Z,8.68
2023-02-22T17:29:54.219Z,9.38
2023-02-22T17:32:24.221Z,6.70
2023-02-22T17:34:54.208Z,8.43
2023-02-22T17:37:27.050Z,6.70
2023-02-22T17:39:57.419Z,6.38
2023-02-22T17:42:27.600Z,5.43
2023-02-22T17:44:57.875Z,6.05
2023-02-22T17:47:28.451Z,3.80
2023-02-22T17:49:58.562Z,2.97
2023-02-22T17:52:31.160Z,2.80
2023-02-22T17:55:01.388Z,4.25
2023-02-22T17:57:31.886Z,3.17
2023-02-22T18:00:12.351Z,5.22
2023-02-22T18:02:46.276Z,2.97
2023-02-22T18:05:17.876Z,3.30
2023-02-22T18:07:50.494Z,2.33
2023-02-22T18:10:21.036Z,4.03
2023-02-22T18:12:53.405Z,3.92
2023-02-22T18:15:28.282Z,3.60
2023-02-22T18:17:59.448Z,5.13
2023-02-22T18:20:31.226Z,3.08
2023-02-22T18:23:03.933Z,4.07
2023-02-22T18:25:33.960Z,3.75
2023-02-22T18:28:04.769Z,3.10
2023-02-22T18:30:35.918Z,4.65
2023-02-22T18:33:07.175Z,2.67
2023-02-22T18:35:37.515Z,5.10
2023-02-22T18:38:14.429Z,3.83
2023-02-22T18:40:47.034Z,5.32
2023-02-22T18:43:16.993Z,8.10
2023-02-22T18:45:47.103Z,5.93
2023-02-22T18:48:17.332Z,5.90
2023-02-22T18:50:47.573Z,13.00
2023-02-22T18:53:20.124Z,16.95
2023-02-22T18:55:50.410Z,25.23
2023-02-22T18:58:20.425Z,23.20
2023-02-22T19:00:51.481Z,25.58
2023-02-22T19:03:21.453Z,47.67
2023-02-22T19:05:52.315Z,76.90
2023-02-22T19:08:25.188Z,50.05
2023-02-22T19:10:55.442Z,21.23
2023-02-22T19:13:25.457Z,14.52
2023-02-22T19:15:55.575Z,5.57
2023-02-22T19:18:25.562Z,43.03
2023-02-22T19:20:58.903Z,20.92
2023-02-22T19:23:34.518Z,10.60
2023-02-22T19:26:09.435Z,9.55
2023-02-22T19:28:39.794Z,11.70
2023-02-22T19:31:15.444Z,19.45
2023-02-22T19:33:46.108Z,31.65
2023-02-22T19:36:17.164Z,35.42
2023-02-22T19:38:49.881Z,20.00
2023-02-22T19:41:22.383Z,12.85
2023-02-22T19:43:55.835Z,15.50
2023-02-22T19:46:27.481Z,15.68
2023-02-22T19:48:58.149Z,12.27
2023-02-22T19:51:30.884Z,12.95
2023-02-22T19:54:05.191Z,12.45
2023-02-22T19:59:12.781Z,13.20
2023-02-22T20:01:44.809Z,12.60
2023-02-22T20:04:18.264Z,14.15
2023-02-22T20:06:50.107Z,12.65
2023-02-22T20:09:29.976Z,15.10
2023-02-22T20:12:00.326Z,10.00
2023-02-22T20:14:30.977Z,11.27
2023-02-22T20:17:01.833Z,10.40
2023-02-22T20:19:32.013Z,18.33
2023-02-22T20:22:02.869Z,12.07
2023-02-22T20:24:35.502Z,11.93
2023-02-22T20:27:05.482Z,11.27
2023-02-22T20:29:35.818Z,12.80
2023-02-22T20:32:07.553Z,11.43
2023-02-22T20:34:37.720Z,11.27
2023-02-22T20:37:07.987Z,6.15
2023-02-22T20:39:40.548Z,7.93
2023-02-22T20:42:11.707Z,6.15
2023-02-22T20:44:42.885Z,6.55
2023-02-22T20:47:12.961Z,4.88
2023-02-22T20:49:42.990Z,3.67
2023-02-22T20:52:13.037Z,2.95
2023-02-22T20:54:45.784Z,4.70
2023-02-22T20:57:16.141Z,3.58
2023-02-22T20:59:46.352Z,4.45
2023-02-22T21:02:16.447Z,3.95
2023-02-22T21:04:46.590Z,2.65
2023-02-22T21:07:16.775Z,2.92
2023-02-22T21:09:49.465Z,3.00
2023-02-22T21:12:19.582Z,4.93
2023-02-22T21:14:49.737Z,3.50
2023-02-22T21:17:28.747Z,2.50
2023-02-22T21:19:58.770Z,2.95
2023-02-22T21:22:29.179Z,3.63
2023-02-22T21:25:01.684Z,3.75
2023-02-22T21:27:31.683Z,3.03
2023-02-22T21:30:01.684Z,4.25
2023-02-22T21:32:32.947Z,3.97
2023-02-22T21:35:02.931Z,4.45
2023-02-22T21:37:34.053Z,2.97
2023-02-22T21:40:11.489Z,6.13
2023-02-22T21:42:41.490Z,2.83
2023-02-22T21:45:14.340Z,4.13
2023-02-22T21:47:46.337Z,3.20
2023-02-22T21:50:16.952Z,2.28
2023-02-22T21:52:47.236Z,3.83
2023-02-22T21:55:20.844Z,3.22
2023-02-22T21:57:50.767Z,4.32
2023-02-22T22:00:29.317Z,2.80
2023-02-22T22:03:05.891Z,3.90
2023-02-22T22:05:36.181Z,3.40
2023-02-22T22:08:07.566Z,3.85
2023-02-22T22:10:40.092Z,3.75
2023-02-22T22:13:10.085Z,4.25
2023-02-22T22:15:40.714Z,3.95
2023-02-22T22:18:11.747Z,3.60
2023-02-22T22:20:42.890Z,4.65
2023-02-22T22:23:13.298Z,6.95
2023-02-22T22:25:46.131Z,9.77
2023-02-22T22:28:16.141Z,8.88
2023-02-22T22:30:46.266Z,9.80
2023-02-22T22:33:17.769Z,4.82
2023-02-22T22:35:47.729Z,5.95
2023-02-22T22:38:17.693Z,6.50
2023-02-22T22:40:53.011Z,6.95
2023-02-22T22:43:23.080Z,4.95
2023-02-22T22:45:53.102Z,4.63
2023-02-22T22:48:25.722Z,5.28
2023-02-22T22:51:02.563Z,7.93
2023-02-22T22:53:34.026Z,4.53
2023-02-22T22:56:14.186Z,4.57
2023-02-22T22:58:45.874Z,4.43
2023-02-22T23:01:20.386Z,4.60
2023-02-22T23:03:55.316Z,4.43
2023-02-22T23:06:30.948Z,5.82
2023-02-22T23:09:10.203Z,4.05
2023-02-22T23:11:46.417Z,5.97
2023-02-22T23:14:19.645Z,6.07
2023-02-22T23:16:50.127Z,8.43
2023-02-22T23:19:20.464Z,5.85
2023-02-22T23:21:52.209Z,5.55
2023-02-22T23:24:26.927Z,4.88
2023-02-22T23:27:00.835Z,4.90
2023-02-22T23:29:32.318Z,4.32
2023-02-22T23:32:02.683Z,5.82
2023-02-22T23:34:32.706Z,5.43
2023-02-22T23:37:03.358Z,7.05
2023-02-22T23:39:33.363Z,3.38
2023-02-22T23:42:08.791Z,5.82
2023-02-22T23:44:40.257Z,6.65
2023-02-22T23:47:10.267Z,4.60
2023-02-22T23:49:43.464Z,5.38
2023-02-22T23:52:24.299Z,3.65
2023-02-22T23:54:55.044Z,5.72
2023-02-22T23:57:27.550Z,6.93
2023-02-22T23:59:57.567Z,5.15
